createdAt,value
2023-03-06T00:01:10.968Z,29.23
2023-03-06T00:03:37.501Z,28.88
2023-03-06T00:06:04.076Z,30.45
2023-03-06T00:08:30.547Z,30.99
2023-03-06T00:10:56.958Z,30.10
2023-03-06T00:13:23.385Z,30.45
2023-03-06T00:15:49.989Z,30.43
2023-03-06T00:18:16.457Z,32.17
2023-03-06T00:20:42.910Z,32.64
2023-03-06T00:23:09.327Z,33.07
2023-03-06T00:25:35.712Z,33.23
2023-03-06T00:28:02.161Z,33.09
2023-03-06T00:30:28.749Z,32.78
2023-03-06T00:32:55.213Z,33.22
2023-03-06T00:35:21.702Z,32.97
2023-03-06T00:37:48.125Z,32.64
2023-03-06T00:40:14.541Z,31.79
2023-03-06T00:42:40.986Z,32.49
2023-03-06T00:45:07.428Z,31.47
2023-03-06T00:47:33.918Z,31.42
2023-03-06T00:50:00.433Z,31.27
2023-03-06T00:52:26.886Z,31.84
2023-03-06T00:54:53.332Z,32.48
2023-03-06T00:57:19.957Z,32.34
2023-03-06T00:59:49.323Z,32.34
2023-03-06T01:02:15.838Z,31.86
2023-03-06T01:04:42.235Z,32.06
2023-03-06T01:07:08.709Z,33.30
2023-03-06T01:09:35.110Z,33.89
2023-03-06T01:12:01.548Z,34.87
2023-03-06T01:14:27.961Z,34.97
2023-03-06T01:16:54.403Z,34.71
2023-03-06T01:19:20.816Z,34.84
2023-03-06T01:21:47.275Z,34.14
2023-03-06T01:24:13.738Z,34.20
2023-03-06T01:26:40.200Z,34.27
2023-03-06T01:29:06.625Z,34.08
2023-03-06T01:31:33.163Z,33.49
2023-03-06T01:33:59.730Z,33.68
2023-03-06T01:36:26.198Z,36.00
2023-03-06T01:38:52.687Z,37.02
2023-03-06T01:41:19.154Z,36.87
2023-03-06T01:43:45.597Z,34.30
2023-03-06T01:46:12.070Z,33.92
2023-03-06T01:48:38.470Z,33.48
2023-03-06T01:51:04.845Z,34.18
2023-03-06T01:53:31.240Z,34.17
2023-03-06T01:55:57.686Z,33.56
2023-03-06T01:58:24.131Z,33.29
2023-03-06T02:00:50.553Z,34.42
2023-03-06T02:03:17.009Z,33.98
2023-03-06T02:05:43.404Z,33.53
2023-03-06T02:08:09.773Z,34.88
2023-03-06T02:10:36.202Z,33.95
2023-03-06T02:13:02.671Z,32.89
2023-03-06T02:15:29.106Z,33.35
2023-03-06T02:17:55.588Z,33.52
2023-03-06T02:20:22.018Z,31.74
2023-03-06T02:22:48.664Z,31.08
2023-03-06T02:25:15.180Z,31.69
2023-03-06T02:27:41.656Z,31.62
2023-03-06T02:30:08.159Z,31.60
2023-03-06T02:32:34.634Z,31.85
2023-03-06T02:35:01.141Z,29.95
2023-03-06T02:37:27.573Z,31.69
2023-03-06T02:39:54.024Z,32.66
2023-03-06T02:42:20.468Z,32.16
2023-03-06T02:44:46.924Z,32.58
2023-03-06T02:47:13.296Z,31.47
2023-03-06T02:49:39.721Z,31.74
2023-03-06T02:52:06.107Z,30.75
2023-03-06T02:54:32.537Z,31.12
2023-03-06T02:56:59.162Z,31.50
2023-03-06T02:59:25.575Z,31.25
2023-03-06T03:01:52.037Z,31.85
2023-03-06T03:04:18.527Z,32.39
2023-03-06T03:06:45.038Z,32.34
2023-03-06T03:09:11.413Z,32.01
2023-03-06T03:11:37.965Z,30.79
2023-03-06T03:14:04.390Z,29.52
2023-03-06T03:16:30.819Z,28.62
2023-03-06T03:18:57.266Z,27.96
2023-03-06T03:21:23.833Z,29.02
2023-03-06T03:23:50.320Z,30.59
2023-03-06T03:26:16.769Z,32.00
2023-03-06T03:28:43.227Z,33.49
2023-03-06T03:31:09.744Z,34.26
2023-03-06T03:33:36.479Z,33.87
2023-03-06T03:36:02.977Z,34.36
2023-03-06T03:38:29.421Z,34.07
2023-03-06T03:40:55.879Z,33.27
2023-03-06T03:43:22.320Z,33.90
2023-03-06T03:45:50.322Z,33.18
2023-03-06T03:48:16.744Z,32.71
2023-03-06T03:50:43.186Z,31.98
2023-03-06T03:53:09.681Z,31.81
2023-03-06T03:55:36.081Z,31.67
2023-03-06T03:58:02.511Z,31.21
2023-03-06T04:00:28.946Z,29.71
2023-03-06T04:02:55.365Z,30.24
2023-03-06T04:05:21.773Z,29.44
2023-03-06T04:07:48.123Z,29.83
2023-03-06T04:10:14.585Z,30.17
2023-03-06T04:12:41.016Z,30.06
2023-03-06T04:15:07.487Z,31.12
2023-03-06T04:17:33.991Z,30.08
2023-03-06T04:20:00.438Z,30.66
2023-03-06T04:22:26.867Z,31.60
2023-03-06T04:24:53.393Z,30.91
2023-03-06T04:27:20.021Z,30.96
2023-03-06T04:29:46.522Z,31.58
2023-03-06T04:32:13.018Z,31.56
2023-03-06T04:34:39.584Z,29.94
2023-03-06T04:37:06.018Z,29.98
2023-03-06T04:39:32.473Z,30.39
2023-03-06T04:41:58.936Z,30.55
2023-03-06T04:44:25.507Z,31.21
2023-03-06T04:46:51.949Z,31.11
2023-03-06T04:49:18.374Z,30.54
2023-03-06T04:51:44.779Z,30.21
2023-03-06T04:54:11.229Z,30.77
2023-03-06T04:56:37.754Z,30.13
2023-03-06T04:59:04.284Z,30.16
2023-03-06T05:01:30.665Z,31.48
2023-03-06T05:03:57.127Z,30.88
2023-03-06T05:06:25.691Z,30.90
2023-03-06T05:08:52.110Z,30.13
2023-03-06T05:11:18.549Z,29.73
2023-03-06T05:13:44.930Z,30.71
2023-03-06T05:16:11.434Z,29.11
2023-03-06T05:18:37.907Z,29.80
2023-03-06T05:21:04.347Z,29.87
2023-03-06T05:23:30.708Z,28.91
2023-03-06T05:25:57.141Z,29.84
2023-03-06T05:28:23.573Z,30.21
2023-03-06T05:30:50.107Z,29.35
2023-03-06T05:33:16.613Z,30.41
2023-03-06T05:35:43.066Z,30.36
2023-03-06T05:38:09.828Z,30.32
2023-03-06T05:40:36.644Z,30.46
2023-03-06T05:43:03.083Z,30.71
2023-03-06T05:45:29.540Z,30.83
2023-03-06T05:47:55.960Z,30.84
2023-03-06T05:50:22.388Z,31.09
2023-03-06T05:52:48.820Z,30.95
2023-03-06T05:55:15.230Z,31.69
2023-03-06T05:57:41.856Z,32.54
2023-03-06T06:00:08.265Z,31.89
2023-03-06T06:02:34.745Z,31.64
2023-03-06T06:05:01.220Z,31.75
2023-03-06T06:07:27.716Z,32.06
2023-03-06T06:09:54.177Z,32.91
2023-03-06T06:12:20.589Z,31.88
2023-03-06T06:14:46.958Z,32.32
2023-03-06T06:17:13.406Z,32.59
2023-03-06T06:19:39.876Z,32.42
2023-03-06T06:22:06.470Z,31.59
2023-03-06T06:24:32.951Z,30.42
2023-03-06T06:27:00.950Z,30.45
2023-03-06T06:29:29.029Z,31.08
2023-03-06T06:31:55.403Z,31.38
2023-03-06T06:34:21.766Z,30.99
2023-03-06T06:36:48.277Z,31.61
2023-03-06T06:39:14.847Z,31.79
2023-03-06T06:41:59.450Z,31.58
2023-03-06T06:44:27.681Z,32.16
2023-03-06T06:49:40.462Z,32.37
2023-03-06T06:52:06.911Z,32.28
2023-03-06T06:54:33.401Z,31.53
2023-03-06T06:56:59.924Z,30.10
2023-03-06T06:59:26.518Z,30.13
2023-03-06T07:01:53.164Z,31.33
2023-03-06T07:04:19.748Z,31.34
2023-03-06T07:06:46.278Z,31.03
2023-03-06T07:09:12.757Z,30.95
2023-03-06T07:11:39.168Z,32.07
2023-03-06T07:14:05.654Z,31.58
2023-03-06T07:16:32.316Z,31.86
2023-03-06T07:18:58.763Z,31.13
2023-03-06T07:21:25.234Z,31.67
2023-03-06T07:23:51.764Z,31.71
2023-03-06T07:26:18.219Z,31.87
2023-03-06T07:28:52.280Z,31.87
2023-03-06T07:31:19.261Z,31.24
2023-03-06T07:33:45.751Z,32.21
2023-03-06T07:36:13.788Z,31.49
2023-03-06T07:38:40.509Z,31.57
2023-03-06T07:41:10.091Z,30.91
2023-03-06T07:43:36.617Z,30.02
2023-03-06T07:46:03.060Z,28.00
2023-03-06T07:48:29.570Z,26.27
2023-03-06T07:50:56.011Z,23.79
2023-03-06T07:53:22.395Z,23.51
2023-03-06T07:55:48.973Z,24.33
2023-03-06T07:58:15.455Z,24.03
2023-03-06T08:00:41.871Z,24.30
2023-03-06T08:03:08.383Z,23.93
2023-03-06T08:05:34.841Z,23.87
2023-03-06T08:08:01.212Z,23.14
2023-03-06T08:10:27.584Z,23.99
2023-03-06T08:12:53.975Z,24.37
2023-03-06T08:15:20.346Z,25.06
2023-03-06T08:17:46.744Z,23.82
2023-03-06T08:20:13.196Z,24.04
2023-03-06T08:22:39.737Z,24.81
2023-03-06T08:25:06.175Z,24.65
2023-03-06T08:27:32.712Z,24.68
2023-03-06T08:29:59.116Z,24.87
2023-03-06T08:35:05.792Z,24.36
2023-03-06T08:37:34.497Z,25.02
2023-03-06T08:40:01.006Z,26.22
2023-03-06T08:42:27.499Z,25.76
2023-03-06T08:44:53.910Z,26.88
2023-03-06T08:47:20.290Z,27.49
2023-03-06T08:49:46.781Z,27.47
2023-03-06T08:52:13.197Z,31.08
2023-03-06T08:54:39.556Z,31.81
2023-03-06T08:57:06.100Z,29.10
2023-03-06T08:59:32.607Z,28.06
2023-03-06T09:01:59.072Z,28.07
2023-03-06T09:04:25.538Z,27.58
2023-03-06T09:06:53.134Z,27.06
2023-03-06T09:09:22.425Z,27.69
2023-03-06T09:11:48.830Z,27.90
2023-03-06T09:14:15.348Z,28.42
2023-03-06T09:16:41.797Z,28.74
2023-03-06T09:19:08.297Z,28.75
2023-03-06T09:21:34.768Z,33.76
2023-03-06T09:24:01.211Z,34.36
2023-03-06T09:26:39.645Z,37.25
2023-03-06T09:29:11.248Z,38.63
2023-03-06T09:31:37.736Z,36.86
2023-03-06T09:34:05.092Z,39.68
2023-03-06T09:36:31.516Z,40.26
2023-03-06T09:38:57.908Z,38.20
2023-03-06T09:41:24.403Z,35.97
2023-03-06T09:43:50.848Z,38.06
2023-03-06T09:46:17.263Z,40.80
2023-03-06T09:48:43.630Z,38.74
2023-03-06T09:51:10.021Z,39.99
2023-03-06T09:53:36.396Z,41.15
2023-03-06T09:56:02.760Z,40.20
2023-03-06T09:58:29.204Z,40.81
2023-03-06T10:00:55.584Z,41.34
2023-03-06T10:03:21.976Z,41.39
2023-03-06T10:05:48.392Z,40.70
2023-03-06T10:08:14.820Z,41.16
2023-03-06T10:10:41.188Z,40.20
2023-03-06T10:13:07.613Z,39.52
2023-03-06T10:15:34.181Z,38.79
2023-03-06T10:18:00.654Z,38.34
2023-03-06T10:20:27.089Z,38.27
2023-03-06T10:23:01.063Z,38.78
2023-03-06T10:25:30.544Z,38.03
2023-03-06T10:27:56.964Z,38.27
2023-03-06T10:30:23.425Z,38.99
2023-03-06T10:32:50.115Z,38.77
2023-03-06T10:35:16.537Z,37.81
2023-03-06T10:37:42.887Z,36.76
2023-03-06T10:40:09.476Z,37.63
2023-03-06T10:42:35.898Z,38.02
2023-03-06T10:45:02.512Z,38.11
2023-03-06T10:47:29.026Z,37.50
2023-03-06T10:49:55.468Z,38.16
2023-03-06T10:52:23.969Z,38.77
2023-03-06T10:54:50.389Z,40.64
2023-03-06T10:57:16.857Z,41.45
2023-03-06T10:59:43.278Z,40.50
2023-03-06T11:02:09.723Z,40.49
2023-03-06T11:04:36.395Z,40.44
2023-03-06T11:07:02.838Z,40.32
2023-03-06T11:09:29.215Z,39.66
2023-03-06T11:11:55.630Z,40.58
2023-03-06T11:14:22.007Z,39.90
2023-03-06T11:16:48.444Z,39.53
2023-03-06T11:19:14.802Z,39.18
2023-03-06T11:21:41.239Z,39.45
2023-03-06T11:24:07.728Z,39.58
2023-03-06T11:26:34.112Z,40.54
2023-03-06T11:29:00.614Z,41.61
2023-03-06T11:31:27.017Z,41.34
2023-03-06T11:33:53.614Z,40.73
2023-03-06T11:36:20.046Z,41.32
2023-03-06T11:38:46.396Z,41.15
2023-03-06T11:41:12.863Z,40.09
2023-03-06T11:43:39.234Z,40.77
2023-03-06T11:46:05.612Z,40.46
2023-03-06T11:48:32.081Z,40.43
2023-03-06T11:50:58.537Z,41.07
2023-03-06T11:53:24.917Z,39.88
2023-03-06T11:55:51.387Z,40.55
2023-03-06T11:58:17.746Z,40.44
2023-03-06T12:00:44.148Z,40.86
2023-03-06T12:03:10.528Z,41.85
2023-03-06T12:05:36.978Z,42.14
2023-03-06T12:08:03.512Z,41.93
2023-03-06T12:10:29.920Z,42.18
2023-03-06T12:12:57.487Z,41.55
2023-03-06T12:15:23.920Z,40.58
2023-03-06T12:17:50.332Z,40.96
2023-03-06T12:20:16.773Z,41.67
2023-03-06T12:22:44.364Z,41.10
2023-03-06T12:25:12.789Z,41.26
2023-03-06T12:27:39.168Z,41.24
2023-03-06T12:30:05.595Z,41.53
2023-03-06T12:32:32.039Z,43.13
2023-03-06T12:34:58.544Z,43.42
2023-03-06T12:37:24.964Z,42.88
2023-03-06T12:39:51.341Z,42.44
2023-03-06T12:42:23.086Z,41.83
2023-03-06T12:44:50.056Z,42.97
2023-03-06T12:47:16.480Z,41.03
2023-03-06T12:49:42.894Z,40.74
2023-03-06T12:52:09.828Z,41.55
2023-03-06T12:54:36.301Z,41.73
2023-03-06T12:57:02.745Z,41.84
2023-03-06T12:59:29.137Z,42.16
2023-03-06T13:01:55.562Z,41.80
2023-03-06T13:04:22.096Z,41.83
2023-03-06T13:06:50.719Z,42.45
2023-03-06T13:09:17.702Z,42.60
2023-03-06T13:11:44.119Z,41.15
2023-03-06T13:14:10.497Z,41.19
2023-03-06T13:16:36.926Z,41.12
2023-03-06T13:19:03.439Z,38.95
2023-03-06T13:21:29.893Z,39.62
2023-03-06T13:23:56.292Z,41.56
2023-03-06T13:26:22.704Z,42.01
2023-03-06T13:28:49.155Z,41.66
2023-03-06T13:31:27.031Z,41.22
2023-03-06T13:33:54.035Z,40.40
2023-03-06T13:36:20.383Z,40.96
2023-03-06T13:38:46.742Z,41.06
2023-03-06T13:41:13.204Z,40.86
2023-03-06T13:43:39.638Z,38.95
2023-03-06T13:46:06.074Z,40.95
2023-03-06T13:48:47.819Z,39.28
2023-03-06T13:51:14.316Z,26.42
2023-03-06T13:53:40.789Z,38.44
2023-03-06T13:56:07.311Z,37.94
2023-03-06T13:58:33.699Z,39.25
2023-03-06T14:01:00.072Z,39.56
2023-03-06T14:03:26.498Z,39.87
2023-03-06T14:05:52.864Z,40.19
2023-03-06T14:08:19.302Z,38.71
2023-03-06T14:10:45.730Z,39.76
2023-03-06T14:13:12.142Z,39.16
2023-03-06T14:15:38.591Z,34.97
2023-03-06T14:18:04.969Z,35.01
2023-03-06T14:20:31.409Z,34.54
2023-03-06T14:22:57.750Z,33.72
2023-03-06T14:25:24.108Z,33.09
2023-03-06T14:27:50.530Z,32.71
2023-03-06T14:30:16.946Z,28.37
2023-03-06T14:32:43.428Z,27.76
2023-03-06T14:35:09.881Z,27.68
2023-03-06T14:37:36.294Z,26.13
2023-03-06T14:40:02.662Z,27.09
2023-03-06T14:42:29.031Z,26.52
2023-03-06T14:44:55.507Z,25.64
2023-03-06T14:47:22.103Z,25.53
2023-03-06T14:49:48.553Z,25.61
2023-03-06T14:52:15.029Z,25.06
2023-03-06T14:54:41.428Z,25.61
2023-03-06T14:57:07.858Z,24.76
2023-03-06T14:59:34.385Z,24.16
2023-03-06T15:02:00.835Z,24.63
2023-03-06T15:04:27.322Z,21.41
2023-03-06T15:06:53.737Z,25.40
2023-03-06T15:09:20.118Z,26.45
2023-03-06T15:11:46.552Z,25.82
2023-03-06T15:14:12.972Z,25.56
2023-03-06T15:16:39.329Z,25.06
2023-03-06T15:19:05.732Z,25.47
2023-03-06T15:21:32.078Z,25.00
2023-03-06T15:23:58.551Z,26.19
2023-03-06T15:26:24.961Z,26.14
2023-03-06T15:28:54.284Z,24.92
2023-03-06T15:31:23.188Z,24.24
2023-03-06T15:33:49.538Z,25.09
2023-03-06T15:36:15.908Z,25.38
2023-03-06T15:38:42.292Z,25.56
2023-03-06T15:41:08.647Z,22.72
2023-03-06T15:43:35.024Z,19.97
2023-03-06T15:46:01.435Z,21.23
2023-03-06T15:48:27.785Z,20.50
2023-03-06T15:50:54.184Z,21.68
2023-03-06T15:53:20.722Z,20.98
2023-03-06T15:55:47.236Z,21.45
2023-03-06T15:58:13.642Z,18.11
2023-03-06T16:00:40.063Z,18.65
2023-03-06T16:03:06.498Z,19.17
2023-03-06T16:05:32.854Z,18.45
2023-03-06T16:07:59.276Z,18.66
2023-03-06T16:10:25.749Z,20.19
2023-03-06T16:12:52.158Z,20.91
2023-03-06T16:15:18.519Z,17.40
2023-03-06T16:17:44.945Z,17.29
2023-03-06T16:20:11.398Z,17.33
2023-03-06T16:22:37.776Z,20.73
2023-03-06T16:25:04.300Z,18.44
2023-03-06T16:27:30.693Z,17.67
2023-03-06T16:29:57.030Z,18.85
2023-03-06T16:32:23.490Z,22.14
2023-03-06T16:34:49.962Z,22.51
2023-03-06T16:37:16.354Z,22.39
2023-03-06T16:39:42.744Z,21.94
2023-03-06T16:42:09.092Z,22.08
2023-03-06T16:44:35.501Z,21.81
2023-03-06T16:47:01.947Z,20.21
2023-03-06T16:49:28.315Z,21.03
2023-03-06T16:51:54.678Z,21.48
2023-03-06T16:54:21.049Z,21.34
2023-03-06T16:56:47.464Z,22.32
2023-03-06T16:59:14.028Z,20.97
2023-03-06T17:01:40.460Z,20.46
2023-03-06T17:04:06.885Z,20.26
2023-03-06T17:06:33.320Z,20.28
2023-03-06T17:08:59.684Z,20.10
2023-03-06T17:11:26.088Z,20.29
2023-03-06T17:13:52.409Z,19.88
2023-03-06T17:16:18.844Z,19.83
2023-03-06T17:18:45.341Z,20.92
2023-03-06T17:21:11.716Z,21.38
2023-03-06T17:23:38.067Z,21.98
2023-03-06T17:26:04.459Z,20.86
2023-03-06T17:28:30.803Z,15.30
2023-03-06T17:30:57.221Z,14.34
2023-03-06T17:33:23.602Z,13.88
2023-03-06T17:35:50.147Z,13.94
2023-03-06T17:38:16.528Z,12.88
2023-03-06T17:40:42.904Z,13.76
2023-03-06T17:43:09.388Z,14.04
2023-03-06T17:45:35.862Z,13.97
2023-03-06T17:48:02.215Z,14.21
2023-03-06T17:50:28.645Z,14.01
2023-03-06T17:52:55.174Z,13.47
2023-03-06T17:55:21.557Z,13.75
2023-03-06T17:57:48.030Z,14.18
2023-03-06T18:00:14.491Z,14.59
2023-03-06T18:02:40.924Z,14.40
2023-03-06T18:05:07.403Z,14.26
2023-03-06T18:07:33.834Z,14.72
2023-03-06T18:10:00.228Z,15.17
2023-03-06T18:12:26.637Z,14.71
2023-03-06T18:14:53.045Z,14.67
2023-03-06T18:17:19.580Z,14.56
2023-03-06T18:19:45.935Z,16.19
2023-03-06T18:22:12.331Z,17.51
2023-03-06T18:24:38.686Z,17.69
2023-03-06T18:27:05.117Z,17.60
2023-03-06T18:29:31.577Z,20.69
2023-03-06T18:31:58.042Z,20.78
2023-03-06T18:34:24.487Z,19.67
2023-03-06T18:36:50.861Z,18.73
2023-03-06T18:39:17.286Z,17.33
2023-03-06T18:41:43.733Z,17.63
2023-03-06T18:44:10.161Z,15.33
2023-03-06T18:46:36.530Z,16.19
2023-03-06T18:49:02.923Z,14.39
2023-03-06T18:51:29.344Z,14.90
2023-03-06T18:53:55.678Z,14.93
2023-03-06T18:56:22.083Z,14.27
2023-03-06T18:58:48.639Z,13.67
2023-03-06T19:01:15.155Z,13.51
2023-03-06T19:03:41.580Z,14.03
2023-03-06T19:06:07.994Z,12.95
2023-03-06T19:08:34.435Z,10.82
2023-03-06T19:11:00.868Z,10.86
2023-03-06T19:13:27.250Z,10.92
2023-03-06T19:15:53.591Z,10.56
2023-03-06T19:18:20.007Z,10.78
2023-03-06T19:20:46.459Z,11.43
2023-03-06T19:23:12.848Z,10.27
2023-03-06T19:25:39.303Z,10.15
2023-03-06T19:28:05.747Z,12.09
2023-03-06T19:30:32.466Z,11.85
2023-03-06T19:32:58.904Z,12.17
2023-03-06T19:35:25.294Z,12.61
2023-03-06T19:37:51.782Z,12.20
2023-03-06T19:40:18.240Z,11.59
2023-03-06T19:42:44.654Z,11.70
2023-03-06T19:45:11.104Z,11.13
2023-03-06T19:47:37.606Z,11.29
2023-03-06T19:50:04.013Z,11.60
2023-03-06T19:52:30.417Z,11.42
2023-03-06T19:54:56.955Z,11.09
2023-03-06T19:57:23.353Z,10.97
2023-03-06T19:59:49.847Z,10.59
2023-03-06T20:02:16.265Z,10.20
2023-03-06T20:04:42.706Z,11.41
2023-03-06T20:07:09.138Z,10.80
2023-03-06T20:09:35.578Z,10.41
2023-03-06T20:12:01.916Z,10.59
2023-03-06T20:14:28.350Z,9.81
2023-03-06T20:16:54.913Z,9.97
2023-03-06T20:19:21.412Z,9.96
2023-03-06T20:21:47.772Z,10.22
2023-03-06T20:24:14.101Z,10.37
2023-03-06T20:26:40.455Z,10.35
2023-03-06T20:29:07.019Z,10.07
2023-03-06T20:31:33.484Z,10.29
2023-03-06T20:33:59.934Z,10.57
2023-03-06T20:36:26.327Z,10.90
2023-03-06T20:38:52.737Z,10.30
2023-03-06T20:41:19.225Z,9.76
2023-03-06T20:43:45.586Z,9.86
2023-03-06T20:46:12.035Z,9.88
2023-03-06T20:48:38.552Z,9.78
2023-03-06T20:51:06.407Z,9.70
2023-03-06T20:53:32.745Z,9.81
2023-03-06T20:55:59.291Z,10.11
2023-03-06T20:58:25.846Z,9.91
2023-03-06T21:00:52.213Z,9.54
2023-03-06T21:03:18.600Z,9.54
2023-03-06T21:05:45.009Z,9.77
2023-03-06T21:08:11.396Z,11.74
2023-03-06T21:10:37.802Z,17.09
2023-03-06T21:13:04.227Z,19.36
2023-03-06T21:15:30.587Z,14.15
2023-03-06T21:17:56.953Z,10.85
2023-03-06T21:20:23.415Z,10.00
2023-03-06T21:22:49.790Z,9.88
2023-03-06T21:25:16.190Z,10.46
2023-03-06T21:27:42.669Z,10.42
2023-03-06T21:30:09.096Z,10.92
2023-03-06T21:32:35.592Z,10.79
2023-03-06T21:35:04.732Z,10.44
2023-03-06T21:37:31.135Z,10.50
2023-03-06T21:39:57.557Z,10.48
2023-03-06T21:42:26.647Z,10.72
2023-03-06T21:44:53.187Z,10.66
2023-03-06T21:47:19.658Z,10.48
2023-03-06T21:49:49.037Z,10.76
2023-03-06T21:52:15.411Z,10.31
2023-03-06T21:54:41.776Z,10.15
2023-03-06T21:57:08.314Z,11.10
2023-03-06T21:59:34.665Z,11.10
2023-03-06T22:02:01.076Z,10.93
2023-03-06T22:04:27.445Z,11.10
2023-03-06T22:06:53.850Z,11.51
2023-03-06T22:09:20.196Z,11.90
2023-03-06T22:11:46.559Z,11.74
2023-03-06T22:14:13.102Z,11.54
2023-03-06T22:16:39.511Z,11.17
2023-03-06T22:19:05.879Z,11.34
2023-03-06T22:21:32.236Z,11.39
2023-03-06T22:23:58.668Z,11.99
2023-03-06T22:26:25.074Z,11.83
2023-03-06T22:28:51.450Z,11.14
2023-03-06T22:31:17.900Z,11.51
2023-03-06T22:33:44.402Z,11.58
2023-03-06T22:36:10.792Z,11.44
2023-03-06T22:38:37.190Z,12.03
2023-03-06T22:41:03.600Z,11.70
2023-03-06T22:43:29.956Z,11.29
2023-03-06T22:45:56.366Z,11.53
2023-03-06T22:48:22.761Z,11.58
2023-03-06T22:50:49.123Z,11.55
2023-03-06T22:53:15.462Z,11.47
2023-03-06T22:55:41.809Z,11.52
2023-03-06T22:58:10.300Z,11.41
2023-03-06T23:00:36.668Z,11.75
2023-03-06T23:03:03.158Z,11.74
2023-03-06T23:05:29.632Z,12.01
2023-03-06T23:07:55.974Z,11.50
2023-03-06T23:10:22.345Z,11.57
2023-03-06T23:12:48.697Z,11.83
2023-03-06T23:15:15.074Z,12.46
2023-03-06T23:17:41.402Z,11.65
2023-03-06T23:20:07.734Z,12.05
2023-03-06T23:22:34.115Z,12.37
2023-03-06T23:25:00.485Z,12.16
2023-03-06T23:27:26.888Z,12.47
2023-03-06T23:29:55.519Z,12.66
2023-03-06T23:32:21.963Z,12.74
2023-03-06T23:34:48.440Z,12.85
2023-03-06T23:37:14.866Z,13.12
2023-03-06T23:39:41.241Z,13.25
2023-03-06T23:42:07.585Z,13.67
2023-03-06T23:44:34.195Z,13.68
2023-03-06T23:47:00.610Z,13.80
2023-03-06T23:49:26.957Z,13.53
2023-03-06T23:51:53.312Z,13.55
2023-03-06T23:54:19.700Z,14.43
2023-03-06T23:56:46.044Z,19.73
2023-03-06T23:59:12.456Z,20.65
